createdAt,value
2023-04-02T00:01:51.659Z,17.58
2023-04-02T00:05:26.001Z,17.56
2023-04-02T00:08:38.801Z,17.56
2023-04-02T00:11:48.463Z,17.54
2023-04-02T00:14:54.197Z,17.53
2023-04-02T00:17:57.659Z,17.53
2023-04-02T00:21:12.019Z,17.52
2023-04-02T00:24:21.282Z,17.52
2023-04-02T00:27:23.642Z,17.51
2023-04-02T00:30:25.763Z,17.49
2023-04-02T00:33:31.365Z,17.48
2023-04-02T00:36:34.610Z,17.48
2023-04-02T00:39:42.195Z,17.46
2023-04-02T00:42:46.577Z,17.47
2023-04-02T00:45:55.884Z,17.45
2023-04-02T00:49:10.656Z,17.45
2023-04-02T00:52:17.005Z,17.45
2023-04-02T00:55:27.879Z,17.40
2023-04-02T00:58:36.745Z,17.41
2023-04-02T01:01:42.763Z,17.40
2023-04-02T01:04:54.374Z,17.40
2023-04-02T01:08:17.515Z,17.39
2023-04-02T01:11:40.221Z,17.39
2023-04-02T01:14:54.461Z,17.38
2023-04-02T01:18:06.671Z,17.38
2023-04-02T01:21:28.999Z,17.36
2023-04-02T01:24:33.532Z,17.35
2023-04-02T01:27:51.049Z,17.34
2023-04-02T01:30:58.171Z,17.33
2023-04-02T01:34:02.153Z,17.33
2023-04-02T01:37:22.693Z,17.32
2023-04-02T01:40:44.194Z,17.31
2023-04-02T01:43:51.708Z,17.30
2023-04-02T01:46:53.862Z,17.29
2023-04-02T01:50:10.911Z,17.28
2023-04-02T01:53:15.340Z,17.28
2023-04-02T01:56:17.943Z,17.26
2023-04-02T01:59:23.050Z,17.25
2023-04-02T02:02:25.247Z,17.26
2023-04-02T02:05:28.051Z,17.24
2023-04-02T02:08:46.737Z,17.24
2023-04-02T02:11:50.786Z,17.24
2023-04-02T02:14:52.882Z,17.23
2023-04-02T02:18:06.518Z,17.23
2023-04-02T02:21:10.011Z,17.22
2023-04-02T02:24:27.667Z,17.22
2023-04-02T02:27:30.670Z,17.21
2023-04-02T02:30:48.916Z,17.20
2023-04-02T02:33:53.548Z,17.19
2023-04-02T02:37:06.646Z,17.19
2023-04-02T02:40:19.944Z,17.18
2023-04-02T02:43:22.258Z,17.17
2023-04-02T02:46:26.662Z,17.17
2023-04-02T02:49:32.441Z,17.15
2023-04-02T02:52:38.784Z,17.16
2023-04-02T02:55:41.385Z,17.14
2023-04-02T02:58:44.646Z,17.15
2023-04-02T03:01:47.707Z,17.11
2023-04-02T03:04:53.094Z,17.09
2023-04-02T03:07:58.125Z,17.11
2023-04-02T03:11:06.478Z,17.11
2023-04-02T03:14:24.484Z,17.10
2023-04-02T03:17:36.005Z,17.09
2023-04-02T03:20:58.485Z,17.08
2023-04-02T03:24:34.971Z,17.07
2023-04-02T03:27:42.421Z,17.07
2023-04-02T03:31:01.983Z,17.06
2023-04-02T03:34:25.693Z,17.07
2023-04-02T03:37:38.621Z,17.05
2023-04-02T03:41:04.250Z,17.05
2023-04-02T03:44:16.383Z,17.04
2023-04-02T03:47:31.063Z,17.02
2023-04-02T03:50:52.475Z,17.02
2023-04-02T03:53:55.122Z,17.02
2023-04-02T03:56:58.284Z,17.01
2023-04-02T04:00:22.317Z,16.99
2023-04-02T04:03:37.050Z,17.00
2023-04-02T04:06:42.796Z,17.00
2023-04-02T04:09:46.998Z,16.99
2023-04-02T04:12:51.070Z,16.99
2023-04-02T04:16:04.630Z,16.98
2023-04-02T04:19:19.408Z,16.98
2023-04-02T04:22:33.884Z,16.95
2023-04-02T04:25:37.075Z,16.95
2023-04-02T04:28:47.151Z,16.95
2023-04-02T04:31:55.278Z,16.95
2023-04-02T04:35:19.677Z,16.93
2023-04-02T04:38:39.179Z,16.92
2023-04-02T04:41:42.153Z,16.92
2023-04-02T04:44:51.423Z,16.91
2023-04-02T04:47:59.126Z,16.90
2023-04-02T04:51:08.779Z,16.91
2023-04-02T04:54:14.039Z,16.89
2023-04-02T04:57:32.824Z,16.88
2023-04-02T05:00:50.042Z,16.88
2023-04-02T05:03:58.100Z,16.87
2023-04-02T05:07:17.451Z,16.92
2023-04-02T05:10:35.485Z,16.90
2023-04-02T05:13:58.965Z,16.90
2023-04-02T05:17:04.042Z,16.88
2023-04-02T05:20:16.296Z,16.87
2023-04-02T05:23:20.613Z,16.87
2023-04-02T05:26:30.516Z,16.86
2023-04-02T05:29:36.788Z,16.86
2023-04-02T05:32:48.310Z,16.86
2023-04-02T05:35:55.942Z,16.84
2023-04-02T05:38:59.606Z,16.84
2023-04-02T05:42:08.385Z,16.82
2023-04-02T05:45:38.985Z,16.82
2023-04-02T05:48:43.624Z,16.88
2023-04-02T05:51:50.293Z,16.94
2023-04-02T05:55:11.394Z,17.32
2023-04-02T06:01:35.369Z,17.79
2023-04-02T06:04:47.327Z,17.81
2023-04-02T06:08:37.863Z,17.91
2023-04-02T06:11:51.346Z,17.94
2023-04-02T06:14:53.378Z,17.95
2023-04-02T06:18:23.913Z,17.97
2023-04-02T06:21:26.859Z,18.06
2023-04-02T06:24:30.316Z,18.17
2023-04-02T06:27:34.718Z,18.11
2023-04-02T06:30:39.936Z,18.17
2023-04-02T06:33:42.982Z,18.14
2023-04-02T06:36:46.150Z,18.09
2023-04-02T06:39:48.232Z,18.09
2023-04-02T06:42:52.471Z,18.08
2023-04-02T06:45:58.163Z,18.12
2023-04-02T06:49:21.357Z,18.21
2023-04-02T06:52:31.158Z,18.30
2023-04-02T06:55:44.830Z,18.42
2023-04-02T06:58:46.981Z,18.55
2023-04-02T07:01:57.080Z,18.64
2023-04-02T07:05:04.064Z,18.72
2023-04-02T07:08:06.934Z,18.77
2023-04-02T07:11:14.517Z,18.87
2023-04-02T07:14:16.571Z,18.98
2023-04-02T07:17:19.565Z,18.99
2023-04-02T07:20:28.507Z,19.02
2023-04-02T07:23:30.906Z,19.01
2023-04-02T07:26:32.985Z,19.02
2023-04-02T07:29:35.005Z,19.07
2023-04-02T07:32:38.245Z,19.13
2023-04-02T07:35:40.739Z,19.15
2023-04-02T07:38:43.466Z,19.25
2023-04-02T07:41:56.053Z,19.18
2023-04-02T07:44:58.216Z,19.27
2023-04-02T07:48:07.469Z,19.44
2023-04-02T07:51:21.624Z,19.57
2023-04-02T07:54:23.696Z,19.57
2023-04-02T07:57:25.802Z,19.59
2023-04-02T08:00:29.187Z,19.59
2023-04-02T08:03:31.411Z,19.61
2023-04-02T08:06:33.718Z,19.57
2023-04-02T08:09:36.008Z,19.52
2023-04-02T08:12:38.287Z,19.58
2023-04-02T08:15:41.080Z,19.48
2023-04-02T08:18:43.219Z,19.48
2023-04-02T08:21:45.617Z,19.54
2023-04-02T08:24:47.666Z,19.65
2023-04-02T08:27:50.259Z,19.80
2023-04-02T08:30:52.696Z,19.83
2023-04-02T08:33:56.780Z,19.79
2023-04-02T08:36:59.145Z,19.80
2023-04-02T08:40:01.176Z,19.79
2023-04-02T08:43:30.992Z,19.83
2023-04-02T08:46:46.310Z,19.80
2023-04-02T08:49:55.862Z,19.80
2023-04-02T08:52:59.574Z,19.83
2023-04-02T08:56:19.014Z,19.81
2023-04-02T08:59:34.620Z,19.81
2023-04-02T09:02:41.545Z,19.80
2023-04-02T09:05:45.777Z,19.77
2023-04-02T09:08:50.221Z,19.80
2023-04-02T09:12:00.659Z,19.81
2023-04-02T09:15:29.416Z,19.83
2023-04-02T09:18:33.265Z,19.88
2023-04-02T09:21:45.798Z,20.00
2023-04-02T09:24:55.296Z,20.07
2023-04-02T09:28:01.619Z,20.00
2023-04-02T09:31:22.160Z,19.98
2023-04-02T09:34:36.368Z,20.01
2023-04-02T09:37:39.161Z,20.00
2023-04-02T09:40:56.775Z,20.00
2023-04-02T09:44:24.120Z,20.03
2023-04-02T09:47:28.707Z,20.03
2023-04-02T09:50:33.953Z,20.05
2023-04-02T09:53:41.124Z,20.11
2023-04-02T09:57:04.518Z,20.09
2023-04-02T10:00:25.267Z,20.14
2023-04-02T10:03:34.388Z,20.35
2023-04-02T10:06:36.689Z,20.47
2023-04-02T10:09:39.101Z,20.48
2023-04-02T10:12:43.276Z,20.50
2023-04-02T10:16:07.013Z,20.51
2023-04-02T10:19:33.989Z,20.50
2023-04-02T10:22:36.344Z,20.48
2023-04-02T10:25:48.432Z,20.49
2023-04-02T10:29:32.619Z,20.53
2023-04-02T10:32:38.271Z,20.51
2023-04-02T10:36:07.315Z,20.55
2023-04-02T10:39:26.048Z,20.54
2023-04-02T10:43:10.134Z,20.50
2023-04-02T10:46:12.138Z,20.46
2023-04-02T10:49:36.150Z,20.42
2023-04-02T10:53:01.581Z,20.43
2023-04-02T10:56:09.195Z,20.53
2023-04-02T10:59:24.088Z,20.71
2023-04-02T11:02:37.563Z,20.78
2023-04-02T11:05:51.477Z,20.78
2023-04-02T11:08:59.215Z,20.70
2023-04-02T11:12:03.403Z,20.73
2023-04-02T11:15:13.956Z,20.68
2023-04-02T11:18:38.881Z,20.70
2023-04-02T11:22:01.998Z,20.69
2023-04-02T11:25:21.902Z,20.72
2023-04-02T11:28:30.015Z,20.74
2023-04-02T11:31:33.032Z,20.69
2023-04-02T11:35:03.078Z,20.70
2023-04-02T11:38:10.811Z,20.90
2023-04-02T11:41:12.872Z,21.22
2023-04-02T11:44:24.577Z,21.48
2023-04-02T11:47:29.619Z,21.61
2023-04-02T11:50:39.166Z,21.58
2023-04-02T11:53:43.244Z,21.61
2023-04-02T11:57:05.050Z,21.61
2023-04-02T12:00:19.403Z,21.62
2023-04-02T12:03:52.340Z,21.62
2023-04-02T12:07:46.562Z,21.54
2023-04-02T12:10:55.997Z,21.55
2023-04-02T12:13:59.953Z,21.55
2023-04-02T12:17:05.786Z,21.48
2023-04-02T12:20:09.654Z,21.37
2023-04-02T12:23:26.497Z,21.37
2023-04-02T12:26:32.147Z,21.31
2023-04-02T12:29:34.361Z,21.25
2023-04-02T12:32:36.558Z,21.21
2023-04-02T12:35:38.875Z,21.18
2023-04-02T12:38:49.125Z,21.11
2023-04-02T12:41:51.404Z,21.07
2023-04-02T12:44:53.761Z,21.03
2023-04-02T12:47:56.911Z,20.96
2023-04-02T12:50:59.650Z,20.93
2023-04-02T12:54:01.746Z,20.92
2023-04-02T12:57:25.790Z,20.86
2023-04-02T13:00:32.235Z,20.81
2023-04-02T13:03:34.355Z,20.78
2023-04-02T13:06:36.837Z,20.75
2023-04-02T13:09:55.109Z,20.73
2023-04-02T13:13:00.375Z,20.72
2023-04-02T13:16:23.022Z,20.73
2023-04-02T13:19:32.903Z,20.71
2023-04-02T13:22:35.012Z,20.69
2023-04-02T13:25:37.598Z,20.68
2023-04-02T13:28:39.749Z,20.66
2023-04-02T13:31:41.943Z,20.61
2023-04-02T13:34:43.980Z,20.58
2023-04-02T13:37:46.051Z,20.57
2023-04-02T13:40:48.322Z,20.54
2023-04-02T13:43:51.939Z,20.54
2023-04-02T13:46:55.624Z,20.53
2023-04-02T13:49:57.851Z,20.53
2023-04-02T13:53:05.090Z,20.51
2023-04-02T13:56:08.361Z,20.53
2023-04-02T13:59:11.396Z,20.50
2023-04-02T14:02:17.776Z,20.49
2023-04-02T14:05:41.827Z,20.54
2023-04-02T14:09:05.647Z,20.54
2023-04-02T14:12:46.079Z,20.56
2023-04-02T14:16:04.087Z,20.54
2023-04-02T14:19:24.753Z,20.55
2023-04-02T14:22:51.626Z,20.54
2023-04-02T14:26:19.781Z,20.56
2023-04-02T14:29:32.851Z,20.48
2023-04-02T14:32:43.584Z,20.40
2023-04-02T14:35:55.165Z,20.36
2023-04-02T14:39:25.406Z,20.37
2023-04-02T14:42:53.686Z,20.33
2023-04-02T14:45:58.895Z,20.27
2023-04-02T14:49:07.425Z,20.22
2023-04-02T14:52:16.886Z,20.17
2023-04-02T14:55:23.704Z,20.11
2023-04-02T14:58:33.555Z,20.09
2023-04-02T15:01:40.892Z,20.06
2023-04-02T15:04:50.912Z,20.04
2023-04-02T15:08:00.309Z,20.02
2023-04-02T15:11:21.041Z,20.00
2023-04-02T15:14:32.799Z,20.01
2023-04-02T15:17:36.053Z,19.99
2023-04-02T15:21:07.720Z,19.95
2023-04-02T15:24:21.746Z,19.90
2023-04-02T15:28:08.309Z,19.90
2023-04-02T15:31:14.971Z,19.87
2023-04-02T15:34:24.320Z,19.86
2023-04-02T15:37:44.239Z,19.84
2023-04-02T15:41:10.619Z,19.82
2023-04-02T15:44:17.015Z,19.80
2023-04-02T15:47:36.955Z,19.79
2023-04-02T15:51:15.696Z,19.76
2023-04-02T15:54:40.219Z,19.74
2023-04-02T15:58:05.418Z,19.72
2023-04-02T16:01:28.690Z,19.67
2023-04-02T16:04:40.839Z,19.68
2023-04-02T16:08:00.952Z,19.68
2023-04-02T16:11:03.001Z,19.63
2023-04-02T16:14:25.378Z,19.61
2023-04-02T16:17:36.252Z,19.62
2023-04-02T16:20:47.495Z,19.61
2023-04-02T16:23:49.984Z,19.59
2023-04-02T16:27:15.101Z,19.56
2023-04-02T16:30:36.086Z,19.54
2023-04-02T16:33:56.723Z,19.51
2023-04-02T16:37:21.564Z,19.51
2023-04-02T16:40:49.501Z,19.46
2023-04-02T16:44:24.352Z,19.43
2023-04-02T16:47:35.167Z,19.39
2023-04-02T16:50:46.738Z,19.36
2023-04-02T16:54:15.783Z,19.33
2023-04-02T16:57:34.652Z,19.30
2023-04-02T17:00:58.674Z,19.27
2023-04-02T17:04:29.234Z,19.26
2023-04-02T17:07:54.693Z,19.24
2023-04-02T17:11:04.995Z,19.20
2023-04-02T17:14:13.942Z,19.17
2023-04-02T17:17:16.266Z,19.16
2023-04-02T17:20:23.515Z,19.13
2023-04-02T17:23:27.631Z,19.18
2023-04-02T17:26:32.579Z,19.17
2023-04-02T17:29:41.942Z,19.12
2023-04-02T17:32:44.496Z,19.10
2023-04-02T17:36:08.432Z,19.06
2023-04-02T17:39:31.263Z,19.08
2023-04-02T17:42:53.948Z,19.05
2023-04-02T17:45:59.157Z,19.03
2023-04-02T17:49:25.148Z,19.03
2023-04-02T17:52:41.668Z,19.02
2023-04-02T17:56:17.453Z,19.00
2023-04-02T17:59:27.021Z,18.95
2023-04-02T18:02:38.833Z,18.92
2023-04-02T18:05:51.705Z,18.89
2023-04-02T18:09:11.828Z,18.89
2023-04-02T18:12:27.020Z,18.86
2023-04-02T18:15:59.783Z,18.85
2023-04-02T18:19:18.341Z,18.84
2023-04-02T18:22:38.296Z,18.80
2023-04-02T18:26:00.547Z,18.78
2023-04-02T18:29:24.410Z,18.77
2023-04-02T18:32:45.626Z,18.74
2023-04-02T18:36:18.881Z,18.73
2023-04-02T18:39:30.654Z,18.72
2023-04-02T18:42:48.483Z,18.71
2023-04-02T18:45:59.459Z,18.70
2023-04-02T18:49:18.185Z,18.69
2023-04-02T18:52:21.358Z,18.67
2023-04-02T18:55:28.022Z,18.67
2023-04-02T18:58:52.802Z,18.65
2023-04-02T19:01:56.070Z,18.65
2023-04-02T19:05:20.225Z,18.63
2023-04-02T19:08:27.464Z,18.62
2023-04-02T19:11:31.065Z,18.62
2023-04-02T19:14:33.234Z,18.61
2023-04-02T19:17:46.896Z,18.59
2023-04-02T19:20:58.244Z,18.59
2023-04-02T19:24:21.363Z,18.58
2023-04-02T19:27:41.478Z,18.57
2023-04-02T19:31:15.786Z,18.55
2023-04-02T19:34:25.355Z,18.53
2023-04-02T19:37:52.701Z,18.51
2023-04-02T19:41:13.403Z,18.51
2023-04-02T19:44:16.425Z,18.50
2023-04-02T19:47:19.466Z,18.49
2023-04-02T19:50:21.752Z,18.47
2023-04-02T19:53:23.751Z,18.47
2023-04-02T19:56:26.751Z,18.46
2023-04-02T19:59:28.796Z,18.44
2023-04-02T20:02:30.823Z,18.44
2023-04-02T20:05:32.964Z,18.43
2023-04-02T20:08:36.236Z,18.42
2023-04-02T20:11:38.602Z,18.39
2023-04-02T20:14:41.197Z,18.40
2023-04-02T20:17:43.309Z,18.37
2023-04-02T20:20:49.093Z,18.36
2023-04-02T20:23:55.046Z,18.35
2023-04-02T20:26:57.290Z,18.34
2023-04-02T20:29:59.400Z,18.33
2023-04-02T20:33:01.584Z,18.32
2023-04-02T20:36:09.441Z,18.30
2023-04-02T20:39:17.814Z,18.30
2023-04-02T20:42:21.055Z,18.29
2023-04-02T20:45:24.311Z,18.30
2023-04-02T20:48:28.123Z,18.27
2023-04-02T20:51:30.265Z,18.28
2023-04-02T20:54:32.353Z,18.27
2023-04-02T20:57:34.506Z,18.25
2023-04-02T21:00:37.240Z,18.25
2023-04-02T21:03:39.977Z,18.24
2023-04-02T21:06:42.319Z,18.23
2023-04-02T21:09:44.506Z,18.21
2023-04-02T21:12:46.835Z,18.21
2023-04-02T21:15:49.101Z,18.20
2023-04-02T21:18:53.136Z,18.20
2023-04-02T21:21:55.441Z,18.19
2023-04-02T21:24:57.668Z,18.19
2023-04-02T21:27:59.725Z,18.17
2023-04-02T21:31:03.168Z,18.15
2023-04-02T21:34:06.450Z,18.13
2023-04-02T21:37:08.525Z,18.14
2023-04-02T21:40:10.896Z,18.12
2023-04-02T21:43:12.992Z,18.11
2023-04-02T21:46:20.207Z,18.11
2023-04-02T21:49:23.209Z,18.10
2023-04-02T21:52:25.566Z,18.10
2023-04-02T21:55:27.607Z,18.08
2023-04-02T21:58:29.676Z,18.07
2023-04-02T22:01:35.120Z,18.07
2023-04-02T22:04:37.415Z,18.05
2023-04-02T22:07:39.449Z,18.05
2023-04-02T22:10:41.492Z,18.04
2023-04-02T22:13:45.862Z,18.03
2023-04-02T22:16:47.981Z,18.02
2023-04-02T22:19:50.135Z,18.00
2023-04-02T22:22:52.216Z,17.98
2023-04-02T22:25:55.301Z,17.99
2023-04-02T22:28:57.985Z,17.98
2023-04-02T22:32:00.122Z,17.96
2023-04-02T22:35:02.403Z,17.94
2023-04-02T22:38:04.725Z,17.94
2023-04-02T22:41:08.254Z,17.93
2023-04-02T22:44:14.251Z,17.93
2023-04-02T22:47:16.292Z,17.91
2023-04-02T22:50:19.315Z,17.92
2023-04-02T22:53:21.353Z,17.91
2023-04-02T22:56:28.449Z,17.89
2023-04-02T22:59:30.557Z,17.88
2023-04-02T23:02:32.733Z,17.88
2023-04-02T23:05:34.788Z,17.87
2023-04-02T23:08:38.189Z,17.84
2023-04-02T23:11:40.429Z,17.83
2023-04-02T23:14:42.413Z,17.84
2023-04-02T23:17:44.506Z,17.83
2023-04-02T23:20:46.581Z,17.82
2023-04-02T23:23:50.367Z,17.82
2023-04-02T23:26:52.409Z,17.79
2023-04-02T23:29:54.421Z,17.79
2023-04-02T23:32:56.721Z,17.78
2023-04-02T23:35:58.865Z,17.79
2023-04-02T23:39:04.354Z,17.77
2023-04-02T23:42:06.547Z,17.77
2023-04-02T23:45:09.215Z,17.75
2023-04-02T23:48:11.277Z,17.73
2023-04-02T23:51:14.018Z,17.73
2023-04-02T23:54:16.374Z,17.72
2023-04-02T23:57:18.430Z,17.70
